Time;durP1;ratioP1;P1;durP2;ratioP2;P2;SDS_P1;SDS_P2;PMS_P1;PMS_P2;Temp;Humidity;BMP_temperature;BMP_pressure;BME280_temperature;BME280_humidity;BME280_pressure;Samples;Min_cycle;Max_cycle;Signal;HPM_P1;HPM_P2
2023/12/17 00:00:22;;;;;;;19.20;17.20;;;;;;;;;;5098079;28;20223;-58
2023/12/17 00:02:49;;;;;;;25.45;22.80;;;;;;;;;;5098505;28;20036;-42
2023/12/17 00:05:16;;;;;;;19.08;14.90;;;;;;;;;;5097476;28;20195;-49
2023/12/17 00:07:44;;;;;;;15.02;13.68;;;;;;;;;;5099564;28;20091;-50
2023/12/17 00:10:11;;;;;;;15.07;13.52;;;;;;;;;;5098210;28;20389;-45
2023/12/17 00:12:37;;;;;;;16.98;12.52;;;;;;;;;;5099903;28;20130;-44
2023/12/17 00:15:04;;;;;;;13.48;12.18;;;;;;;;;;5099826;28;20065;-50
2023/12/17 00:17:31;;;;;;;980.05;322.00;;;;;;;;;;5097627;28;20028;-46
2023/12/17 00:19:57;;;;;;;187.52;60.33;;;;;;;;;;5098211;28;20046;-43
2023/12/17 00:22:24;;;;;;;112.00;37.28;;;;;;;;;;5099313;28;20023;-44
2023/12/17 00:24:51;;;;;;;40.35;17.40;;;;;;;;;;5099658;28;20314;-46
2023/12/17 00:27:17;;;;;;;54.40;22.02;;;;;;;;;;5099093;28;20036;-46
2023/12/17 00:29:44;;;;;;;56.30;23.67;;;;;;;;;;5097350;28;20456;-48
2023/12/17 00:32:11;;;;;;;24.60;15.82;;;;;;;;;;5093967;28;20275;-42
2023/12/17 00:34:38;;;;;;;20.55;14.50;;;;;;;;;;5092880;28;20084;-45
2023/12/17 00:37:04;;;;;;;17.40;13.48;;;;;;;;;;5095944;28;20130;-56
2023/12/17 00:39:31;;;;;;;14.93;12.55;;;;;;;;;;5095607;28;20028;-41
2023/12/17 00:41:58;;;;;;;20.23;13.90;;;;;;;;;;5093543;28;20299;-53
2023/12/17 00:44:26;;;;;;;15.40;12.15;;;;;;;;;;5099938;28;20027;-51
2023/12/17 00:46:52;;;;;;;21.33;13.45;;;;;;;;;;5090805;28;20047;-42
2023/12/17 00:49:19;;;;;;;16.13;13.95;;;;;;;;;;5094924;28;20036;-42
2023/12/17 00:51:46;;;;;;;13.25;11.90;;;;;;;;;;5089549;28;20008;-43
2023/12/17 00:54:12;;;;;;;15.15;12.23;;;;;;;;;;5096860;28;20382;-58
2023/12/17 00:56:39;;;;;;;11.88;10.77;;;;;;;;;;5093356;28;20069;-49
2023/12/17 00:59:06;;;;;;;13.30;10.70;;;;;;;;;;5087469;28;20031;-44
2023/12/17 01:01:35;;;;;;;16.50;10.73;;;;;;;;;;5087488;28;20036;-43
2023/12/17 01:04:01;;;;;;;12.25;10.02;;;;;;;;;;5098020;28;20039;-43
2023/12/17 01:06:28;;;;;;;10.82;9.80;;;;;;;;;;5096250;28;20030;-43
2023/12/17 01:08:55;;;;;;;12.23;10.40;;;;;;;;;;5098657;28;20148;-46
2023/12/17 01:11:21;;;;;;;9.93;8.73;;;;;;;;;;5096619;28;20087;-50
2023/12/17 01:13:48;;;;;;;11.57;8.60;;;;;;;;;;5092597;28;20023;-46
2023/12/17 01:16:15;;;;;;;8.95;8.05;;;;;;;;;;5095382;28;20032;-47
2023/12/17 01:18:41;;;;;;;11.18;8.93;;;;;;;;;;5093378;28;20056;-48
2023/12/17 01:21:08;;;;;;;10.98;8.80;;;;;;;;;;5095193;28;20020;-45
2023/12/17 01:23:37;;;;;;;13.45;9.20;;;;;;;;;;5103290;28;20035;-48
2023/12/17 01:26:04;;;;;;;21.50;19.25;;;;;;;;;;5103149;28;20188;-49
2023/12/17 01:28:31;;;;;;;15.52;14.13;;;;;;;;;;5099524;28;20040;-45
2023/12/17 01:30:57;;;;;;;17.67;14.68;;;;;;;;;;5101663;28;20349;-45
2023/12/17 01:33:26;;;;;;;13.23;9.90;;;;;;;;;;5104373;28;20051;-49
2023/12/17 01:35:53;;;;;;;13.98;12.02;;;;;;;;;;5104838;28;20073;-47
2023/12/17 01:38:20;;;;;;;18.42;14.10;;;;;;;;;;5103547;28;20020;-53
2023/12/17 01:40:46;;;;;;;17.55;14.50;;;;;;;;;;5103352;28;20104;-41
2023/12/17 01:43:13;;;;;;;15.93;12.95;;;;;;;;;;5104562;28;20215;-56
2023/12/17 01:45:40;;;;;;;16.85;12.20;;;;;;;;;;5097353;28;20287;-42
2023/12/17 01:48:06;;;;;;;14.43;12.90;;;;;;;;;;5092700;28;20324;-43
2023/12/17 01:50:33;;;;;;;14.25;11.60;;;;;;;;;;5100717;28;20093;-53
2023/12/17 01:53:00;;;;;;;17.83;11.88;;;;;;;;;;5096427;28;20033;-46
2023/12/17 01:55:27;;;;;;;13.00;11.65;;;;;;;;;;5097687;28;20300;-48
2023/12/17 01:57:54;;;;;;;14.23;11.90;;;;;;;;;;5102399;28;20069;-59
2023/12/17 02:00:21;;;;;;;12.95;10.98;;;;;;;;;;5104061;28;20221;-60
2023/12/17 02:02:48;;;;;;;96.43;87.50;;;;;;;;;;5092821;28;20037;-49
2023/12/17 02:05:15;;;;;;;65.32;59.13;;;;;;;;;;5094727;28;20192;-44
2023/12/17 02:07:43;;;;;;;32.38;28.88;;;;;;;;;;5101524;28;20036;-47
2023/12/17 02:10:10;;;;;;;26.08;23.55;;;;;;;;;;5093773;28;20032;-48
2023/12/17 02:12:37;;;;;;;22.70;20.48;;;;;;;;;;5099141;28;20087;-47
2023/12/17 02:15:03;;;;;;;36.08;32.35;;;;;;;;;;5098271;28;20024;-50
2023/12/17 02:17:31;;;;;;;32.15;28.70;;;;;;;;;;5098527;28;20248;-51
2023/12/17 02:19:58;;;;;;;26.27;23.05;;;;;;;;;;5096438;28;20016;-48
2023/12/17 02:22:25;;;;;;;71.82;65.22;;;;;;;;;;5093644;28;20032;-57
2023/12/17 02:24:54;;;;;;;42.70;38.47;;;;;;;;;;5098833;28;20038;-50
2023/12/17 02:27:24;;;;;;;29.45;26.35;;;;;;;;;;5095444;28;20216;-47
2023/12/17 02:29:51;;;;;;;23.80;20.48;;;;;;;;;;5094363;28;20099;-48
2023/12/17 02:32:18;;;;;;;17.58;15.82;;;;;;;;;;5095664;28;20025;-54
2023/12/17 02:34:45;;;;;;;22.67;16.67;;;;;;;;;;5094134;28;20255;-52
2023/12/17 02:37:12;;;;;;;16.00;14.30;;;;;;;;;;5094791;28;20043;-52
2023/12/17 02:39:39;;;;;;;15.20;13.60;;;;;;;;;;5095124;28;20039;-48
2023/12/17 02:42:06;;;;;;;15.95;12.65;;;;;;;;;;5094555;28;20028;-47
2023/12/17 02:44:33;;;;;;;16.90;12.65;;;;;;;;;;5093484;28;20024;-44
2023/12/17 02:47:00;;;;;;;14.02;11.40;;;;;;;;;;5091471;28;20024;-50
2023/12/17 02:49:27;;;;;;;16.00;11.50;;;;;;;;;;5090469;28;20029;-50
2023/12/17 02:51:55;;;;;;;13.55;11.90;;;;;;;;;;5095706;28;20324;-44
2023/12/17 02:54:26;;;;;;;12.38;10.82;;;;;;;;;;5097353;28;20031;-47
2023/12/17 02:56:52;;;;;;;14.77;10.85;;;;;;;;;;5094680;28;21274;-53
2023/12/17 02:59:19;;;;;;;13.20;10.80;;;;;;;;;;5092651;28;20246;-49
2023/12/17 03:01:46;;;;;;;14.95;11.38;;;;;;;;;;5087712;28;20036;-52
2023/12/17 03:04:13;;;;;;;13.60;10.60;;;;;;;;;;5086317;28;20047;-49
2023/12/17 03:06:40;;;;;;;13.55;10.43;;;;;;;;;;5093371;28;20289;-54
2023/12/17 03:09:07;;;;;;;14.02;9.98;;;;;;;;;;5088469;28;20037;-45
2023/12/17 03:11:34;;;;;;;16.63;9.88;;;;;;;;;;5087540;28;20064;-51
2023/12/17 03:14:00;;;;;;;11.10;10.07;;;;;;;;;;5090066;28;20091;-52
2023/12/17 03:16:28;;;;;;;12.38;10.65;;;;;;;;;;5094279;28;20085;-47
2023/12/17 03:18:55;;;;;;;14.57;10.10;;;;;;;;;;5089718;28;20209;-43
2023/12/17 03:21:28;;;;;;;14.20;10.35;;;;;;;;;;5093732;28;20050;-46
2023/12/17 03:23:54;;;;;;;14.30;10.93;;;;;;;;;;5091936;28;20285;-56
2023/12/17 03:26:21;;;;;;;15.70;10.80;;;;;;;;;;5093334;28;20074;-50
2023/12/17 03:28:48;;;;;;;11.15;9.77;;;;;;;;;;5091300;28;20108;-57
2023/12/17 03:31:15;;;;;;;11.32;9.52;;;;;;;;;;5092632;28;20024;-56
2023/12/17 03:33:44;;;;;;;12.82;10.18;;;;;;;;;;5094771;28;20019;-48
2023/12/17 03:36:14;;;;;;;14.32;8.55;;;;;;;;;;5098293;28;20207;-44
2023/12/17 03:38:42;;;;;;;11.40;8.85;;;;;;;;;;5095411;28;20025;-47
2023/12/17 03:41:20;;;;;;;17.65;9.32;;;;;;;;;;5095010;28;20460;-48
2023/12/17 03:43:47;;;;;;;11.70;8.27;;;;;;;;;;5091757;28;20039;-48
2023/12/17 03:46:17;;;;;;;11.70;8.23;;;;;;;;;;5094553;28;20020;-46
2023/12/17 03:48:44;;;;;;;14.10;8.48;;;;;;;;;;5093060;28;20029;-47
2023/12/17 03:51:10;;;;;;;9.00;7.90;;;;;;;;;;5102771;28;20032;-49
2023/12/17 03:53:37;;;;;;;8.52;7.03;;;;;;;;;;5104702;28;20021;-41
2023/12/17 03:56:07;;;;;;;8.00;6.18;;;;;;;;;;5099859;28;20024;-49
2023/12/17 03:58:34;;;;;;;7.15;6.45;;;;;;;;;;5090396;28;20032;-51
2023/12/17 04:01:01;;;;;;;7.90;5.90;;;;;;;;;;5094824;28;20426;-47
2023/12/17 04:03:29;;;;;;;6.80;5.90;;;;;;;;;;5092555;28;20051;-45
2023/12/17 04:05:56;;;;;;;9.10;6.00;;;;;;;;;;5098877;28;20036;-43
2023/12/17 04:08:23;;;;;;;6.43;5.75;;;;;;;;;;5099410;28;20332;-52
2023/12/17 04:10:49;;;;;;;7.80;5.57;;;;;;;;;;5096271;28;20013;-45
2023/12/17 04:13:16;;;;;;;11.88;5.97;;;;;;;;;;5096655;28;20027;-49
2023/12/17 04:15:44;;;;;;;8.65;5.88;;;;;;;;;;5098371;28;20234;-49
2023/12/17 04:18:11;;;;;;;8.00;5.10;;;;;;;;;;5091157;28;20040;-45
2023/12/17 04:20:37;;;;;;;8.60;5.57;;;;;;;;;;5096369;28;20170;-47
2023/12/17 04:23:04;;;;;;;11.07;5.43;;;;;;;;;;5099127;28;20067;-47
2023/12/17 04:25:31;;;;;;;15.10;5.97;;;;;;;;;;5093909;28;20032;-49
2023/12/17 04:27:58;;;;;;;11.55;5.80;;;;;;;;;;5099195;28;20025;-47
2023/12/17 04:30:24;;;;;;;9.18;5.40;;;;;;;;;;5088724;28;20040;-51
2023/12/17 04:32:51;;;;;;;8.80;5.20;;;;;;;;;;5090016;28;20099;-51
2023/12/17 04:35:18;;;;;;;6.13;5.22;;;;;;;;;;5094593;28;20057;-54
2023/12/17 04:37:44;;;;;;;7.85;5.43;;;;;;;;;;5095597;28;20224;-54
2023/12/17 04:40:12;;;;;;;8.00;5.20;;;;;;;;;;5097324;28;20091;-47
2023/12/17 04:42:38;;;;;;;9.60;5.30;;;;;;;;;;5102238;28;20028;-45
2023/12/17 04:45:06;;;;;;;8.45;5.50;;;;;;;;;;5092357;28;20032;-48
2023/12/17 04:47:33;;;;;;;9.05;5.55;;;;;;;;;;5099342;28;20220;-53
2023/12/17 04:50:01;;;;;;;8.93;5.43;;;;;;;;;;5096081;28;20287;-52
2023/12/17 04:52:27;;;;;;;6.57;4.90;;;;;;;;;;5097674;28;20091;-48
2023/12/17 04:54:54;;;;;;;9.15;5.70;;;;;;;;;;5098353;28;20334;-54
2023/12/17 04:57:21;;;;;;;7.30;5.13;;;;;;;;;;5098435;28;20041;-47
2023/12/17 04:59:48;;;;;;;7.32;5.22;;;;;;;;;;5098984;28;20016;-55
2023/12/17 05:02:16;;;;;;;8.95;4.88;;;;;;;;;;5096503;28;20232;-55
2023/12/17 05:04:43;;;;;;;8.82;5.38;;;;;;;;;;5096700;28;20040;-49
2023/12/17 05:07:09;;;;;;;10.15;5.18;;;;;;;;;;5103904;28;20030;-50
2023/12/17 05:09:36;;;;;;;13.65;5.88;;;;;;;;;;5096828;28;20031;-54
2023/12/17 05:12:03;;;;;;;8.35;5.47;;;;;;;;;;5099042;28;20141;-44
2023/12/17 05:14:31;;;;;;;10.43;5.47;;;;;;;;;;5099220;28;20197;-43
2023/12/17 05:16:57;;;;;;;9.95;5.72;;;;;;;;;;5096728;28;20204;-46
2023/12/17 05:19:24;;;;;;;9.45;5.78;;;;;;;;;;5090396;28;20066;-44
2023/12/17 05:21:52;;;;;;;9.20;5.10;;;;;;;;;;5092052;28;20020;-47
2023/12/17 05:24:18;;;;;;;14.40;5.85;;;;;;;;;;5092772;28;20359;-48
2023/12/17 05:26:45;;;;;;;17.02;6.40;;;;;;;;;;5097306;28;20028;-45
2023/12/17 05:29:12;;;;;;;11.77;5.55;;;;;;;;;;5092220;28;20397;-44
2023/12/17 05:31:38;;;;;;;10.85;5.45;;;;;;;;;;5091637;28;20217;-60
2023/12/17 05:34:08;;;;;;;10.23;5.60;;;;;;;;;;5096471;28;20031;-44
2023/12/17 05:36:35;;;;;;;7.82;5.00;;;;;;;;;;5094478;28;20054;-47
2023/12/17 05:39:02;;;;;;;6.63;5.00;;;;;;;;;;5093793;28;20058;-52
2023/12/17 05:41:29;;;;;;;6.35;5.22;;;;;;;;;;5098234;28;20193;-47
2023/12/17 05:43:56;;;;;;;6.85;5.40;;;;;;;;;;5092849;28;20091;-47
2023/12/17 05:46:23;;;;;;;8.07;4.63;;;;;;;;;;5094346;28;20066;-49
2023/12/17 05:48:50;;;;;;;8.25;5.07;;;;;;;;;;5095816;28;20043;-47
2023/12/17 05:51:16;;;;;;;9.05;5.38;;;;;;;;;;5093164;28;20055;-47
2023/12/17 05:53:43;;;;;;;8.23;4.90;;;;;;;;;;5092822;28;20042;-46
2023/12/17 05:56:10;;;;;;;6.90;4.57;;;;;;;;;;5095665;28;20028;-41
2023/12/17 05:58:38;;;;;;;6.68;4.70;;;;;;;;;;5092528;28;20023;-57
2023/12/17 06:01:04;;;;;;;7.32;4.65;;;;;;;;;;5094524;28;20038;-44
2023/12/17 06:03:31;;;;;;;5.80;4.38;;;;;;;;;;5093316;28;20037;-43
2023/12/17 06:05:58;;;;;;;9.75;4.68;;;;;;;;;;5091979;28;20012;-46
2023/12/17 06:08:24;;;;;;;9.05;4.57;;;;;;;;;;5086406;28;20378;-47
2023/12/17 06:10:51;;;;;;;8.60;5.28;;;;;;;;;;5094280;28;20028;-45
2023/12/17 06:13:18;;;;;;;6.65;4.47;;;;;;;;;;5092375;28;20029;-46
2023/12/17 06:15:45;;;;;;;9.38;4.60;;;;;;;;;;5095857;28;20020;-52
2023/12/17 06:18:13;;;;;;;6.25;5.35;;;;;;;;;;5089661;28;20032;-48
2023/12/17 06:20:40;;;;;;;7.25;4.93;;;;;;;;;;5097918;28;20020;-44
2023/12/17 06:23:09;;;;;;;6.97;5.05;;;;;;;;;;5096912;28;20036;-46
2023/12/17 06:25:35;;;;;;;7.32;4.68;;;;;;;;;;5093392;28;20024;-61
2023/12/17 06:28:02;;;;;;;6.53;4.82;;;;;;;;;;5091761;28;20016;-42
2023/12/17 06:30:30;;;;;;;6.75;4.95;;;;;;;;;;5093298;28;20032;-47
2023/12/17 06:32:57;;;;;;;12.88;5.53;;;;;;;;;;5092612;28;20024;-45
2023/12/17 06:35:24;;;;;;;6.82;4.97;;;;;;;;;;5097205;28;20016;-45
2023/12/17 06:37:51;;;;;;;7.10;4.90;;;;;;;;;;5096696;28;20016;-52
2023/12/17 06:40:18;;;;;;;7.97;5.47;;;;;;;;;;5093549;28;20028;-47
2023/12/17 06:42:45;;;;;;;8.23;5.10;;;;;;;;;;5095674;28;20025;-49
2023/12/17 06:45:12;;;;;;;5.75;5.05;;;;;;;;;;5089235;28;20029;-59
2023/12/17 06:47:38;;;;;;;31.13;7.80;;;;;;;;;;5093293;28;20882;-42
2023/12/17 06:50:05;;;;;;;15.07;8.55;;;;;;;;;;5097370;28;20098;-45
2023/12/17 06:52:32;;;;;;;10.70;8.25;;;;;;;;;;5092882;28;20256;-48
2023/12/17 06:54:59;;;;;;;8.13;6.85;;;;;;;;;;5100195;28;20313;-49
2023/12/17 06:57:25;;;;;;;9.07;6.20;;;;;;;;;;5091952;28;20217;-46
2023/12/17 06:59:52;;;;;;;7.20;5.40;;;;;;;;;;5093683;28;20250;-48
2023/12/17 07:02:19;;;;;;;8.20;5.30;;;;;;;;;;5099275;28;20056;-43
2023/12/17 07:04:45;;;;;;;8.82;5.40;;;;;;;;;;5099798;28;20151;-54
2023/12/17 07:07:12;;;;;;;7.85;4.80;;;;;;;;;;5088575;28;20032;-49
2023/12/17 07:09:38;;;;;;;7.68;5.50;;;;;;;;;;5095180;28;20085;-50
2023/12/17 07:12:05;;;;;;;8.80;6.80;;;;;;;;;;5098618;28;20366;-46
2023/12/17 07:14:32;;;;;;;9.80;6.30;;;;;;;;;;5097512;28;20032;-50
2023/12/17 07:16:59;;;;;;;7.95;5.75;;;;;;;;;;5089570;28;20031;-47
2023/12/17 07:19:25;;;;;;;8.68;5.20;;;;;;;;;;5096985;28;20103;-50
2023/12/17 07:21:52;;;;;;;7.07;5.05;;;;;;;;;;5102168;28;20028;-47
2023/12/17 07:24:19;;;;;;;6.68;5.15;;;;;;;;;;5102755;28;20051;-47
2023/12/17 07:26:45;;;;;;;7.47;4.95;;;;;;;;;;5106904;28;20139;-46
2023/12/17 07:29:13;;;;;;;6.00;5.32;;;;;;;;;;5105459;28;20058;-44
2023/12/17 07:31:40;;;;;;;5.55;4.88;;;;;;;;;;5106149;28;20028;-56
2023/12/17 07:34:06;;;;;;;7.15;5.22;;;;;;;;;;5104558;28;20079;-48
2023/12/17 07:36:33;;;;;;;6.13;5.13;;;;;;;;;;5101315;28;20027;-48
2023/12/17 07:39:00;;;;;;;6.88;4.90;;;;;;;;;;5104525;28;20039;-49
2023/12/17 07:41:26;;;;;;;9.90;5.60;;;;;;;;;;5103971;28;20032;-44
2023/12/17 07:43:53;;;;;;;7.57;4.85;;;;;;;;;;5101652;28;20095;-44
2023/12/17 07:46:20;;;;;;;5.57;4.68;;;;;;;;;;5105818;28;20032;-44
2023/12/17 07:48:46;;;;;;;7.95;5.20;;;;;;;;;;5102663;28;20079;-50
2023/12/17 07:51:13;;;;;;;9.15;5.03;;;;;;;;;;5095842;28;20027;-42
2023/12/17 07:53:40;;;;;;;7.05;5.05;;;;;;;;;;5094475;28;20211;-52
2023/12/17 07:56:08;;;;;;;9.68;5.15;;;;;;;;;;5103579;28;20027;-46
2023/12/17 07:58:35;;;;;;;6.47;4.97;;;;;;;;;;5099202;28;20043;-44
2023/12/17 08:01:01;;;;;;;9.93;4.95;;;;;;;;;;5086466;28;20069;-45
2023/12/17 08:03:28;;;;;;;6.65;4.80;;;;;;;;;;5086837;28;20087;-57
2023/12/17 08:05:55;;;;;;;6.30;4.40;;;;;;;;;;5087991;28;20020;-56
2023/12/17 08:08:22;;;;;;;8.90;4.28;;;;;;;;;;5088098;28;20220;-54
2023/12/17 08:10:48;;;;;;;10.82;4.85;;;;;;;;;;5104999;28;20028;-50
2023/12/17 08:13:15;;;;;;;6.72;4.57;;;;;;;;;;5100966;28;20095;-51
2023/12/17 08:15:42;;;;;;;10.40;4.63;;;;;;;;;;5104466;28;20028;-54
2023/12/17 08:18:08;;;;;;;7.05;4.43;;;;;;;;;;5093223;28;20055;-57
2023/12/17 08:20:35;;;;;;;5.18;4.28;;;;;;;;;;5103425;28;20024;-51
2023/12/17 08:23:02;;;;;;;6.07;4.45;;;;;;;;;;5103344;28;20330;-44
2023/12/17 08:25:30;;;;;;;6.88;4.45;;;;;;;;;;5106491;28;20250;-46
2023/12/17 08:27:57;;;;;;;5.75;4.20;;;;;;;;;;5089287;28;20032;-43
2023/12/17 08:30:24;;;;;;;10.13;4.75;;;;;;;;;;5089790;28;20039;-46
2023/12/17 08:32:51;;;;;;;5.93;4.55;;;;;;;;;;5102589;28;20055;-45
2023/12/17 08:35:19;;;;;;;7.18;4.70;;;;;;;;;;5095333;28;20028;-54
2023/12/17 08:37:46;;;;;;;5.38;4.70;;;;;;;;;;5090315;28;20081;-42
2023/12/17 08:40:14;;;;;;;5.20;4.70;;;;;;;;;;5100180;28;20314;-39
2023/12/17 08:42:43;;;;;;;6.15;4.47;;;;;;;;;;5101681;28;20083;-52
2023/12/17 08:45:10;;;;;;;8.63;5.13;;;;;;;;;;5088775;28;20103;-42
2023/12/17 08:47:37;;;;;;;7.50;4.18;;;;;;;;;;5100903;28;20035;-43
2023/12/17 08:50:04;;;;;;;9.88;4.95;;;;;;;;;;5105990;28;20051;-40
2023/12/17 08:52:32;;;;;;;7.40;5.03;;;;;;;;;;5106059;28;20027;-41
2023/12/17 08:54:59;;;;;;;5.70;4.78;;;;;;;;;;5099928;28;20025;-45
2023/12/17 08:57:26;;;;;;;6.68;4.38;;;;;;;;;;5095984;28;20182;-44
2023/12/17 08:59:53;;;;;;;8.60;4.22;;;;;;;;;;5088771;28;20335;-46
2023/12/17 09:02:20;;;;;;;6.88;4.43;;;;;;;;;;5085413;28;20040;-45
2023/12/17 09:04:49;;;;;;;6.00;4.70;;;;;;;;;;5093079;28;20039;-45
2023/12/17 09:07:16;;;;;;;4.82;4.38;;;;;;;;;;5101268;28;20332;-45
2023/12/17 09:09:43;;;;;;;7.13;4.25;;;;;;;;;;5097164;28;20224;-40
2023/12/17 09:12:10;;;;;;;9.10;4.90;;;;;;;;;;5105314;28;20091;-48
2023/12/17 09:14:36;;;;;;;5.82;4.20;;;;;;;;;;5103769;28;20216;-41
2023/12/17 09:17:03;;;;;;;5.35;4.40;;;;;;;;;;5095291;28;20328;-44
2023/12/17 09:19:30;;;;;;;7.05;4.57;;;;;;;;;;5095944;28;20079;-40
2023/12/17 09:21:56;;;;;;;7.63;4.40;;;;;;;;;;5090663;28;20028;-40
2023/12/17 09:24:23;;;;;;;5.47;4.50;;;;;;;;;;5093715;28;20020;-41
2023/12/17 09:26:50;;;;;;;7.32;4.72;;;;;;;;;;5092022;28;20087;-40
2023/12/17 09:29:17;;;;;;;7.22;4.78;;;;;;;;;;5093495;28;20047;-44
2023/12/17 09:31:43;;;;;;;6.22;4.63;;;;;;;;;;5093249;28;20335;-40
2023/12/17 09:34:11;;;;;;;6.68;4.43;;;;;;;;;;5093152;28;20035;-53
2023/12/17 09:36:37;;;;;;;5.53;4.38;;;;;;;;;;5094104;28;20027;-41
2023/12/17 09:39:04;;;;;;;6.55;4.75;;;;;;;;;;5094503;28;20024;-43
2023/12/17 09:41:31;;;;;;;7.22;4.75;;;;;;;;;;5098782;28;20039;-41
2023/12/17 09:43:57;;;;;;;7.43;4.45;;;;;;;;;;5094102;28;20023;-54
2023/12/17 09:46:24;;;;;;;5.32;4.38;;;;;;;;;;5090974;28;20024;-40
2023/12/17 09:48:51;;;;;;;8.63;4.35;;;;;;;;;;5093046;28;20035;-41
2023/12/17 09:51:21;;;;;;;7.55;4.63;;;;;;;;;;5105083;28;20095;-42
2023/12/17 09:53:47;;;;;;;6.78;5.05;;;;;;;;;;5101617;28;20043;-38
2023/12/17 09:56:14;;;;;;;7.35;4.90;;;;;;;;;;5095898;28;20335;-43
2023/12/17 09:58:41;;;;;;;7.45;5.10;;;;;;;;;;5101771;28;20078;-43
2023/12/17 10:01:08;;;;;;;9.40;4.60;;;;;;;;;;5104466;28;20068;-49
2023/12/17 10:03:35;;;;;;;8.32;5.10;;;;;;;;;;5104789;28;20032;-54
2023/12/17 10:06:03;;;;;;;7.88;5.53;;;;;;;;;;5104659;28;20032;-49
2023/12/17 10:08:31;;;;;;;5.75;5.03;;;;;;;;;;5098579;28;20020;-50
2023/12/17 10:10:58;;;;;;;13.15;7.20;;;;;;;;;;5095597;28;20077;-50
2023/12/17 10:13:24;;;;;;;7.25;5.90;;;;;;;;;;5104604;28;20032;-52
2023/12/17 10:15:52;;;;;;;6.20;4.78;;;;;;;;;;5101034;28;20024;-51
2023/12/17 10:18:19;;;;;;;6.38;5.40;;;;;;;;;;5104396;28;20038;-51
2023/12/17 10:20:46;;;;;;;9.70;5.40;;;;;;;;;;5104579;28;20032;-53
2023/12/17 10:23:13;;;;;;;10.63;5.45;;;;;;;;;;5104369;28;20288;-51
2023/12/17 10:25:40;;;;;;;6.72;5.30;;;;;;;;;;5104159;28;20211;-51
2023/12/17 10:28:09;;;;;;;7.72;5.55;;;;;;;;;;5104107;28;20082;-56
2023/12/17 10:30:37;;;;;;;9.23;5.60;;;;;;;;;;5104441;28;20020;-50
2023/12/17 10:33:05;;;;;;;8.25;5.70;;;;;;;;;;5104268;28;20032;-51
2023/12/17 10:35:33;;;;;;;7.72;5.80;;;;;;;;;;5104462;28;20035;-49
2023/12/17 10:38:00;;;;;;;8.48;5.75;;;;;;;;;;5104246;28;20347;-48
2023/12/17 10:40:30;;;;;;;6.15;5.53;;;;;;;;;;5104399;28;20198;-52
2023/12/17 10:42:57;;;;;;;9.15;5.47;;;;;;;;;;5103425;28;20051;-54
2023/12/17 10:45:24;;;;;;;6.22;5.50;;;;;;;;;;5104168;28;20020;-50
2023/12/17 10:47:58;;;;;;;8.13;5.68;;;;;;;;;;5104252;28;20044;-51
2023/12/17 10:50:25;;;;;;;7.05;5.50;;;;;;;;;;5103974;28;20028;-51
2023/12/17 10:52:52;;;;;;;8.50;5.68;;;;;;;;;;5104165;28;20204;-50
2023/12/17 10:55:19;;;;;;;10.73;6.13;;;;;;;;;;5104244;28;20019;-55
2023/12/17 10:57:55;;;;;;;11.68;6.25;;;;;;;;;;5104114;28;20069;-50
2023/12/17 11:00:24;;;;;;;9.45;6.18;;;;;;;;;;5103568;28;20053;-53
2023/12/17 11:02:52;;;;;;;9.43;6.15;;;;;;;;;;5103799;28;20096;-50
2023/12/17 11:05:19;;;;;;;9.13;6.43;;;;;;;;;;5095914;28;20038;-50
2023/12/17 11:07:46;;;;;;;10.93;6.10;;;;;;;;;;5083618;28;20029;-45
2023/12/17 11:10:15;;;;;;;9.15;6.32;;;;;;;;;;5084998;28;20032;-53
2023/12/17 11:12:42;;;;;;;10.93;7.03;;;;;;;;;;5103707;28;20024;-52
2023/12/17 11:15:09;;;;;;;9.60;6.88;;;;;;;;;;5113435;28;20086;-56
2023/12/17 11:17:38;;;;;;;8.20;6.90;;;;;;;;;;5103837;28;20055;-51
2023/12/17 11:20:05;;;;;;;8.90;7.38;;;;;;;;;;5103681;28;20042;-54
2023/12/17 11:22:38;;;;;;;7.22;6.50;;;;;;;;;;5103947;28;20066;-51
2023/12/17 11:25:09;;;;;;;8.60;6.38;;;;;;;;;;5103797;28;20115;-51
2023/12/17 11:27:36;;;;;;;7.60;6.68;;;;;;;;;;5103554;28;20050;-50
2023/12/17 11:30:03;;;;;;;7.25;6.55;;;;;;;;;;5103623;28;20346;-50
2023/12/17 11:32:39;;;;;;;8.70;6.45;;;;;;;;;;5103724;28;20031;-54
2023/12/17 11:35:09;;;;;;;8.10;6.55;;;;;;;;;;5103438;28;20307;-53
2023/12/17 11:37:35;;;;;;;8.32;6.22;;;;;;;;;;5103613;28;20036;-58
2023/12/17 11:40:03;;;;;;;8.63;7.05;;;;;;;;;;5103670;28;20316;-56
2023/12/17 11:42:29;;;;;;;7.07;6.10;;;;;;;;;;5102239;28;20202;-57
2023/12/17 11:44:56;;;;;;;8.38;6.90;;;;;;;;;;5103539;28;20328;-55
2023/12/17 11:47:26;;;;;;;8.27;6.65;;;;;;;;;;5103492;28;20351;-52
2023/12/17 11:49:58;;;;;;;6.72;6.13;;;;;;;;;;5103278;28;20024;-56
2023/12/17 11:52:25;;;;;;;;;;;;;;;;;;5103901;28;20073;-57
2023/12/17 11:54:58;;;;;;;10.23;7.35;;;;;;;;;;5106712;28;19979;-51
2023/12/17 11:57:26;;;;;;;9.82;7.57;;;;;;;;;;5107188;28;20020;-61
2023/12/17 11:59:54;;;;;;;12.65;6.43;;;;;;;;;;5107114;28;20027;-64
2023/12/17 12:02:21;;;;;;;7.93;6.93;;;;;;;;;;5105756;28;20043;-62
2023/12/17 12:04:50;;;;;;;7.75;6.93;;;;;;;;;;5107124;28;20086;-61
2023/12/17 12:07:18;;;;;;;9.80;6.75;;;;;;;;;;5107068;28;20091;-60
2023/12/17 12:09:48;;;;;;;8.75;6.40;;;;;;;;;;5106728;28;20038;-63
2023/12/17 12:12:19;;;;;;;11.95;7.03;;;;;;;;;;5107004;28;20330;-62
2023/12/17 12:14:46;;;;;;;8.82;6.57;;;;;;;;;;5106814;28;20023;-62
2023/12/17 12:17:31;;;;;;;10.43;6.43;;;;;;;;;;5106706;28;20038;-61
2023/12/17 12:19:57;;;;;;;15.10;6.40;;;;;;;;;;5106839;28;20197;-60
2023/12/17 12:22:28;;;;;;;7.78;6.35;;;;;;;;;;5106586;28;20269;-60
2023/12/17 12:24:59;;;;;;;7.45;6.13;;;;;;;;;;5106700;28;20051;-59
2023/12/17 12:27:25;;;;;;;6.75;5.88;;;;;;;;;;5106431;28;20066;-61
2023/12/17 12:29:52;;;;;;;13.00;6.30;;;;;;;;;;5106191;28;20070;-59
2023/12/17 12:32:32;;;;;;;10.82;6.38;;;;;;;;;;5106600;28;20035;-62
2023/12/17 12:34:59;;;;;;;9.60;6.40;;;;;;;;;;5106335;28;20036;-62
2023/12/17 12:37:36;;;;;;;10.65;6.10;;;;;;;;;;5106461;28;20047;-61
2023/12/17 12:40:04;;;;;;;10.88;5.97;;;;;;;;;;5106504;28;20035;-63
2023/12/17 12:42:31;;;;;;;11.07;6.00;;;;;;;;;;5106207;28;20036;-63
2023/12/17 12:44:59;;;;;;;8.55;6.20;;;;;;;;;;5106272;28;20020;-63
2023/12/17 12:47:26;;;;;;;8.55;6.07;;;;;;;;;;5106301;28;20206;-62
2023/12/17 12:49:52;;;;;;;11.98;6.05;;;;;;;;;;5105998;28;20051;-59
2023/12/17 12:52:22;;;;;;;8.07;5.88;;;;;;;;;;5106221;28;20027;-62
2023/12/17 12:54:53;;;;;;;8.52;6.25;;;;;;;;;;5106006;28;20247;-62
2023/12/17 12:57:21;;;;;;;7.95;6.65;;;;;;;;;;5106206;28;20032;-64
2023/12/17 12:59:47;;;;;;;18.30;10.77;;;;;;;;;;5105985;28;20308;-62
2023/12/17 13:02:14;;;;;;;19.77;12.75;;;;;;;;;;5105717;28;20055;-60
2023/12/17 13:04:41;;;;;;;14.43;10.27;;;;;;;;;;5105083;28;20043;-61
2023/12/17 13:07:09;;;;;;;14.40;10.40;;;;;;;;;;5092541;28;20043;-58
2023/12/17 13:09:35;;;;;;;11.43;9.18;;;;;;;;;;5085341;28;20041;-60
2023/12/17 13:12:02;;;;;;;10.60;7.82;;;;;;;;;;5086021;28;20079;-62
2023/12/17 13:14:30;;;;;;;10.55;8.40;;;;;;;;;;5089054;28;20065;-62
2023/12/17 13:16:58;;;;;;;9.90;7.28;;;;;;;;;;5106065;28;20031;-60
2023/12/17 13:19:25;;;;;;;11.55;7.05;;;;;;;;;;5105750;28;20202;-59
2023/12/17 13:21:51;;;;;;;9.57;5.97;;;;;;;;;;5106025;28;20043;-61
2023/12/17 13:24:18;;;;;;;9.52;6.55;;;;;;;;;;5093801;28;20043;-63
2023/12/17 13:26:45;;;;;;;8.02;6.20;;;;;;;;;;5100504;28;20055;-62
2023/12/17 13:29:13;;;;;;;8.73;5.88;;;;;;;;;;5105343;28;20048;-59
2023/12/17 13:31:40;;;;;;;6.72;5.93;;;;;;;;;;5105330;28;20396;-61
2023/12/17 13:34:06;;;;;;;7.45;5.32;;;;;;;;;;5092893;28;20262;-62
2023/12/17 13:36:33;;;;;;;8.52;5.32;;;;;;;;;;5122148;28;20308;-60
2023/12/17 13:39:00;;;;;;;9.68;5.05;;;;;;;;;;5109759;28;20048;-59
2023/12/17 13:41:27;;;;;;;7.47;5.30;;;;;;;;;;5093972;28;20087;-56
2023/12/17 13:43:53;;;;;;;7.07;5.53;;;;;;;;;;5104513;28;20215;-61
2023/12/17 13:46:20;;;;;;;11.30;5.35;;;;;;;;;;5105570;28;20219;-62
2023/12/17 13:48:47;;;;;;;7.55;5.20;;;;;;;;;;5104451;28;20055;-61
2023/12/17 13:51:13;;;;;;;9.40;5.00;;;;;;;;;;5104264;28;20470;-62
2023/12/17 13:53:40;;;;;;;7.60;5.38;;;;;;;;;;5104862;28;20031;-58
2023/12/17 13:56:07;;;;;;;7.45;5.32;;;;;;;;;;5104017;28;20062;-62
2023/12/17 13:58:33;;;;;;;6.68;4.93;;;;;;;;;;5104926;28;20038;-62
2023/12/17 14:01:00;;;;;;;5.95;5.10;;;;;;;;;;5104590;28;20309;-62
2023/12/17 14:03:27;;;;;;;6.70;5.32;;;;;;;;;;5104347;28;20024;-62
2023/12/17 14:05:54;;;;;;;5.25;4.43;;;;;;;;;;5104917;28;20050;-64
2023/12/17 14:08:21;;;;;;;6.53;4.60;;;;;;;;;;5104689;28;20100;-62
2023/12/17 14:10:48;;;;;;;6.82;4.78;;;;;;;;;;5104643;28;20039;-63
2023/12/17 14:13:14;;;;;;;10.52;4.90;;;;;;;;;;5104575;28;20050;-63
2023/12/17 14:15:41;;;;;;;6.80;4.88;;;;;;;;;;5104676;28;20073;-62
2023/12/17 14:18:08;;;;;;;5.90;4.32;;;;;;;;;;5104503;28;20032;-60
2023/12/17 14:20:34;;;;;;;7.47;4.30;;;;;;;;;;5104683;28;20304;-64
2023/12/17 14:23:03;;;;;;;6.13;4.07;;;;;;;;;;5104530;28;20340;-62
2023/12/17 14:25:30;;;;;;;4.57;3.80;;;;;;;;;;5104375;28;20049;-59
2023/12/17 14:27:58;;;;;;;4.85;3.63;;;;;;;;;;5104547;28;20027;-63
2023/12/17 14:30:25;;;;;;;5.53;3.42;;;;;;;;;;5104144;28;20048;-58
2023/12/17 14:32:51;;;;;;;4.20;3.35;;;;;;;;;;5104188;28;20098;-60
2023/12/17 14:35:18;;;;;;;5.63;4.05;;;;;;;;;;5104342;28;20057;-59